Archival Weather

Sydney Intl

Sydney, Australia (YSSY)

Report from: Wednesday, September 20, 2023 2:00 AM AEST
Current time: Tuesday, July 16, 2024 7:12 PM AEST

Current weather – Weather history – Daily summaries
Weather forecast

Temperature19.0°C (66.2°F)
Dew point12.0°C (53.6°F)
Winds 5 kts (2.6 m/s, 5.8 mph) North-Northwest (340°)
Visibility6.2 mi. (10 km)
Clouds Sky clear
Altimeter29.83 in.Hg (1010 mB)
Relative humidity64 %
Density altitude776 ft. (236 m)
Remarks Fully automated report
No clouds detected
Flight conditions Visual Meteorological Conditions
Raw dataYSSY 191600Z AUTO 34005KT 9999 // NCD 19/12 Q1010 RF00.0/000.0
An error has occurred. This application may no longer respond until reloaded. Reload 🗙